Time;durP1;ratioP1;P1;durP2;ratioP2;P2;SDS_P1;SDS_P2;PMS_P1;PMS_P2;Temp;Humidity;BMP_temperature;BMP_pressure;BME280_temperature;BME280_humidity;BME280_pressure;Samples;Min_cycle;Max_cycle;Signal;HPM_P1;HPM_P2
2022/04/07 00:01:22;;;;;;;3.30;2.28;;;16.10;57.80;;;;;;5115523;28;20466;-65
2022/04/07 00:03:48;;;;;;;3.88;2.20;;;16.10;57.90;;;;;;5115603;28;20031;-65
2022/04/07 00:06:13;;;;;;;4.80;2.05;;;16.10;58.00;;;;;;5115451;28;20382;-66
2022/04/07 00:08:40;;;;;;;3.65;2.13;;;16.10;57.90;;;;;;5115334;28;20027;-66
2022/04/07 00:11:07;;;;;;;2.47;1.80;;;16.10;58.50;;;;;;5115004;28;20030;-65
2022/04/07 00:13:33;;;;;;;2.38;1.50;;;16.10;57.90;;;;;;5133862;28;20031;-65
2022/04/07 00:16:00;;;;;;;2.03;1.60;;;16.10;57.80;;;;;;5134630;27;20080;-65
2022/04/07 00:18:27;;;;;;;2.53;1.55;;;16.10;57.70;;;;;;5119231;27;20019;-65
2022/04/07 00:20:53;;;;;;;1.58;1.38;;;16.10;57.70;;;;;;5118752;27;20023;-65
2022/04/07 00:23:20;;;;;;;2.05;1.40;;;16.10;57.60;;;;;;5137598;27;20023;-65
2022/04/07 00:25:46;;;;;;;2.20;1.17;;;16.10;57.70;;;;;;5119083;27;20384;-65
2022/04/07 00:28:12;;;;;;;2.20;1.17;;;16.10;57.90;;;;;;5106825;28;20030;-66
2022/04/07 00:30:39;;;;;;;2.78;1.30;;;16.10;57.80;;;;;;5127595;27;20124;-66
2022/04/07 00:33:06;;;;;;;2.00;1.02;;;16.00;57.50;;;;;;5133542;27;20034;-65
2022/04/07 00:35:32;;;;;;;4.50;1.45;;;16.00;57.50;;;;;;5099848;28;20357;-65
2022/04/07 00:37:58;;;;;;;5.00;1.83;;;16.00;57.80;;;;;;5116589;28;20126;-67
2022/04/07 00:40:23;;;;;;;5.90;1.55;;;16.00;57.90;;;;;;5097588;28;20503;-67
2022/04/07 00:42:51;;;;;;;2.95;1.73;;;16.00;58.00;;;;;;5098169;28;20072;-67
2022/04/07 00:45:19;;;;;;;2.15;1.35;;;16.00;58.40;;;;;;5120388;27;20034;-65
2022/04/07 00:47:46;;;;;;;2.53;1.30;;;15.90;58.20;;;;;;5136984;27;20026;-65
2022/04/07 00:50:13;;;;;;;2.45;0.98;;;15.90;58.30;;;;;;5137018;27;20386;-65
2022/04/07 00:52:46;;;;;;;6.40;1.45;;;15.90;58.40;;;;;;5136559;27;20038;-64
2022/04/07 00:55:14;;;;;;;6.30;1.50;;;15.90;58.50;;;;;;5107082;27;20502;-65
2022/04/07 00:57:42;;;;;;;2.00;1.00;;;15.80;58.50;;;;;;5140606;27;20029;-65
2022/04/07 01:00:10;;;;;;;2.33;0.90;;;15.80;58.70;;;;;;5118302;27;20027;-65
2022/04/07 01:02:37;;;;;;;2.28;0.90;;;15.80;58.70;;;;;;5136776;27;20019;-65
2022/04/07 01:05:04;;;;;;;3.10;1.35;;;15.70;58.70;;;;;;5135558;27;20490;-65
2022/04/07 01:07:32;;;;;;;2.22;1.52;;;15.70;58.80;;;;;;5117368;27;20030;-65
2022/04/07 01:09:59;;;;;;;2.25;1.25;;;15.70;58.90;;;;;;5117870;27;20026;-65
2022/04/07 01:12:25;;;;;;;1.98;1.30;;;15.70;59.10;;;;;;5117328;27;20037;-65
2022/04/07 01:14:59;;;;;;;1.67;1.10;;;15.70;59.10;;;;;;5136304;27;20106;-65
2022/04/07 01:17:26;;;;;;;1.80;1.10;;;15.70;59.20;;;;;;5111390;27;20020;-65
2022/04/07 01:19:51;;;;;;;1.75;1.33;;;15.70;59.10;;;;;;5136240;27;20050;-66
2022/04/07 01:22:19;;;;;;;1.33;0.93;;;15.60;59.00;;;;;;5117648;27;20467;-66
2022/04/07 01:24:46;;;;;;;1.08;0.98;;;15.60;59.10;;;;;;5135800;27;20076;-65
2022/04/07 01:27:13;;;;;;;1.70;1.17;;;15.60;59.00;;;;;;5135588;27;20020;-65
2022/04/07 01:29:39;;;;;;;5.38;1.40;;;15.60;59.20;;;;;;5117518;27;20031;-65
2022/04/07 01:32:11;;;;;;;1.38;0.95;;;15.60;59.50;;;;;;5133178;27;20033;-65
2022/04/07 01:34:39;;;;;;;1.33;0.85;;;15.60;59.60;;;;;;5126015;27;20087;-65
2022/04/07 01:37:07;;;;;;;4.97;1.25;;;15.50;59.50;;;;;;5117567;27;20135;-65
2022/04/07 01:39:33;;;;;;;2.80;1.08;;;15.50;59.70;;;;;;5135963;27;20478;-65
2022/04/07 01:41:59;;;;;;;1.52;1.00;;;15.50;59.80;;;;;;5117456;27;20031;-65
2022/04/07 01:44:26;;;;;;;2.75;1.20;;;15.50;59.70;;;;;;5117460;27;20485;-65
2022/04/07 01:46:53;;;;;;;2.22;1.52;;;15.50;59.70;;;;;;5135568;27;20494;-65
2022/04/07 01:49:21;;;;;;;4.25;1.40;;;15.50;59.70;;;;;;5135710;27;20359;-65
2022/04/07 01:51:48;;;;;;;2.88;1.38;;;15.50;59.80;;;;;;5117306;27;20035;-65
2022/04/07 01:54:15;;;;;;;2.90;1.30;;;15.50;60.00;;;;;;5135535;27;20364;-65
2022/04/07 01:56:43;;;;;;;2.42;1.33;;;15.40;59.90;;;;;;5135474;27;20023;-65
2022/04/07 01:59:10;;;;;;;3.67;1.55;;;15.40;59.80;;;;;;5116973;27;20053;-65
2022/04/07 02:01:36;;;;;;;1.70;1.10;;;15.40;59.80;;;;;;5135244;27;20054;-65
2022/04/07 02:04:02;;;;;;;1.10;0.93;;;15.50;59.80;;;;;;5134442;27;20034;-65
2022/04/07 02:06:28;;;;;;;1.90;1.15;;;15.50;59.80;;;;;;5116913;27;20428;-65
2022/04/07 02:08:54;;;;;;;2.00;1.25;;;15.50;59.80;;;;;;5135556;27;20035;-65
2022/04/07 02:11:23;;;;;;;2.30;1.48;;;15.50;59.90;;;;;;5135180;27;20027;-65
2022/04/07 02:13:49;;;;;;;2.17;1.30;;;15.50;59.90;;;;;;5134735;27;20489;-66
2022/04/07 02:16:16;;;;;;;4.30;1.38;;;15.50;59.80;;;;;;5135030;27;20027;-66
2022/04/07 02:18:42;;;;;;;2.85;1.40;;;15.50;59.80;;;;;;5116738;27;20118;-65
2022/04/07 02:21:08;;;;;;;2.67;1.35;;;15.50;59.70;;;;;;5135217;27;20027;-65
2022/04/07 02:23:41;;;;;;;4.72;1.45;;;15.50;59.70;;;;;;5135126;27;20023;-65
2022/04/07 02:26:12;;;;;;;5.10;1.52;;;15.50;59.70;;;;;;5135487;27;20080;-65
2022/04/07 02:28:38;;;;;;;1.63;1.20;;;15.50;59.70;;;;;;5116715;27;20027;-65
2022/04/07 02:31:04;;;;;;;2.58;1.40;;;15.50;59.40;;;;;;5119967;27;20024;-65
2022/04/07 02:33:30;;;;;;;3.38;1.70;;;15.40;59.40;;;;;;5125393;27;20031;-65
2022/04/07 02:35:56;;;;;;;3.22;1.70;;;15.40;59.40;;;;;;5114101;28;20024;-65
2022/04/07 02:38:21;;;;;;;3.80;2.70;;;15.30;59.60;;;;;;5095835;28;20038;-65
2022/04/07 02:40:47;;;;;;;4.40;2.83;;;15.30;59.60;;;;;;5095062;28;20047;-65
2022/04/07 02:43:13;;;;;;;5.65;3.25;;;15.30;59.60;;;;;;5095832;28;20481;-65
2022/04/07 02:45:38;;;;;;;5.63;3.33;;;15.20;59.70;;;;;;5114134;28;20479;-65
2022/04/07 02:48:04;;;;;;;7.15;3.55;;;15.30;59.60;;;;;;5114082;28;20031;-65
2022/04/07 02:50:30;;;;;;;4.65;3.08;;;15.20;59.70;;;;;;5095788;28;20028;-65
2022/04/07 02:52:55;;;;;;;4.88;2.58;;;15.10;59.50;;;;;;5114130;28;20034;-66
2022/04/07 02:55:22;;;;;;;2.55;2.05;;;15.10;59.50;;;;;;5113759;28;20098;-65
2022/04/07 02:57:48;;;;;;;10.65;5.28;;;15.10;59.50;;;;;;5095660;28;20023;-65
2022/04/07 03:00:14;;;;;;;15.07;6.47;;;15.00;59.70;;;;;;5119834;27;20098;-65
2022/04/07 03:02:40;;;;;;;11.65;6.05;;;15.00;59.90;;;;;;5133787;27;20394;-65
2022/04/07 03:05:06;;;;;;;5.35;3.00;;;14.90;60.00;;;;;;5129191;27;20106;-65
2022/04/07 03:07:31;;;;;;;3.85;1.92;;;14.90;60.00;;;;;;5117261;27;20031;-65
2022/04/07 03:09:57;;;;;;;10.40;5.10;;;14.90;60.00;;;;;;5133945;27;20027;-65
2022/04/07 03:12:23;;;;;;;12.48;6.57;;;14.90;60.00;;;;;;5134392;27;20086;-65
2022/04/07 03:14:48;;;;;;;17.00;6.57;;;14.80;60.10;;;;;;5134083;27;20031;-65
2022/04/07 03:17:14;;;;;;;9.45;4.55;;;14.80;60.20;;;;;;5115884;28;20413;-66
2022/04/07 03:19:40;;;;;;;8.20;3.20;;;14.80;60.40;;;;;;5134127;27;20038;-65
2022/04/07 03:22:06;;;;;;;3.45;2.05;;;14.80;60.60;;;;;;5115826;28;20451;-65
2022/04/07 03:24:32;;;;;;;4.60;2.50;;;14.80;60.70;;;;;;5134155;28;20031;-65
2022/04/07 03:26:57;;;;;;;4.65;2.78;;;14.70;60.80;;;;;;5115757;28;20473;-65
2022/04/07 03:29:23;;;;;;;3.70;2.20;;;14.70;60.90;;;;;;5133635;28;20462;-64
2022/04/07 03:31:49;;;;;;;2.53;1.65;;;14.80;61.00;;;;;;5134159;28;20027;-65
2022/04/07 03:34:15;;;;;;;2.90;2.10;;;14.80;61.10;;;;;;5133905;28;20034;-65
2022/04/07 03:36:40;;;;;;;6.43;1.80;;;14.80;61.40;;;;;;5134065;28;20120;-65
2022/04/07 03:39:06;;;;;;;2.40;1.30;;;14.80;61.40;;;;;;5133946;28;20039;-64
2022/04/07 03:41:33;;;;;;;8.20;2.20;;;14.80;61.20;;;;;;5115572;28;20142;-65
2022/04/07 03:44:03;;;;;;;3.72;2.50;;;14.80;61.20;;;;;;5134159;28;20066;-65
2022/04/07 03:46:30;;;;;;;3.50;2.20;;;14.80;61.20;;;;;;5134266;28;20019;-65
2022/04/07 03:48:55;;;;;;;4.53;2.90;;;14.80;61.40;;;;;;5133964;28;20027;-66
2022/04/07 03:51:21;;;;;;;5.25;3.20;;;14.80;61.30;;;;;;5117212;27;20432;-65
2022/04/07 03:53:47;;;;;;;3.88;2.35;;;14.80;61.30;;;;;;5119500;27;20469;-65
2022/04/07 03:56:13;;;;;;;5.13;2.40;;;14.80;61.30;;;;;;5119506;27;20059;-65
2022/04/07 03:58:38;;;;;;;3.45;2.40;;;14.90;61.60;;;;;;5137421;27;20031;-65
2022/04/07 04:01:04;;;;;;;6.07;3.92;;;14.80;61.60;;;;;;5126213;27;20031;-65
2022/04/07 04:03:30;;;;;;;6.60;3.97;;;14.90;61.70;;;;;;5135777;27;20055;-65
2022/04/07 04:05:56;;;;;;;5.38;3.05;;;14.90;61.70;;;;;;5137759;27;20098;-65
2022/04/07 04:08:22;;;;;;;6.20;3.35;;;14.90;61.60;;;;;;5119149;27;20489;-65
2022/04/07 04:10:48;;;;;;;6.05;2.83;;;14.90;61.50;;;;;;5137599;27;20422;-66
2022/04/07 04:13:14;;;;;;;3.40;2.13;;;14.90;61.60;;;;;;5137340;27;20019;-65
2022/04/07 04:15:39;;;;;;;3.75;2.38;;;14.90;61.50;;;;;;5137680;27;20034;-67
2022/04/07 04:18:05;;;;;;;2.70;2.20;;;14.90;61.50;;;;;;5137136;27;20030;-65
2022/04/07 04:20:32;;;;;;;2.63;2.13;;;14.80;61.60;;;;;;5119093;27;20039;-65
2022/04/07 04:22:58;;;;;;;6.30;2.33;;;14.80;61.50;;;;;;5137469;27;20019;-65
2022/04/07 04:25:23;;;;;;;3.30;1.92;;;14.80;61.50;;;;;;5137291;27;20033;-65
2022/04/07 04:27:49;;;;;;;4.25;2.13;;;14.80;61.50;;;;;;5137286;27;20072;-65
2022/04/07 04:30:18;;;;;;;4.68;1.92;;;14.90;61.70;;;;;;5117846;27;20039;-65
2022/04/07 04:32:44;;;;;;;2.15;1.50;;;14.80;61.40;;;;;;5136803;27;20023;-65
2022/04/07 04:35:10;;;;;;;5.25;2.10;;;14.80;61.40;;;;;;5118508;27;20035;-65
2022/04/07 04:37:37;;;;;;;2.80;1.75;;;14.80;61.40;;;;;;5137435;27;20282;-65
2022/04/07 04:40:04;;;;;;;3.90;2.80;;;14.80;61.40;;;;;;5136862;27;20087;-65
2022/04/07 04:42:30;;;;;;;3.92;2.33;;;14.80;61.50;;;;;;5118547;27;20424;-65
2022/04/07 04:44:56;;;;;;;2.63;2.10;;;14.80;61.60;;;;;;5136987;27;20023;-65
2022/04/07 04:47:22;;;;;;;3.47;2.00;;;14.80;61.70;;;;;;5137061;27;20027;-65
2022/04/07 04:49:47;;;;;;;2.83;2.33;;;14.80;61.70;;;;;;5118403;27;20122;-65
2022/04/07 04:52:14;;;;;;;3.22;2.10;;;14.80;61.90;;;;;;5137216;27;20027;-65
2022/04/07 04:54:40;;;;;;;2.67;1.90;;;14.80;61.90;;;;;;5136537;27;20132;-66
2022/04/07 04:57:06;;;;;;;2.50;1.77;;;14.80;61.90;;;;;;5118426;27;20038;-66
2022/04/07 04:59:33;;;;;;;2.28;1.70;;;14.80;62.00;;;;;;5136350;27;20068;-65
2022/04/07 05:01:58;;;;;;;2.72;1.85;;;14.80;62.10;;;;;;5111161;28;20364;-65
2022/04/07 05:04:24;;;;;;;3.17;2.05;;;14.80;62.10;;;;;;5114199;27;20050;-65
2022/04/07 05:06:50;;;;;;;3.72;2.20;;;14.90;62.20;;;;;;5099834;28;20024;-64
2022/04/07 05:09:16;;;;;;;4.47;1.90;;;14.90;62.10;;;;;;5097572;28;20463;-65
2022/04/07 05:11:42;;;;;;;2.75;2.03;;;14.90;62.20;;;;;;5097636;28;20032;-66
2022/04/07 05:14:08;;;;;;;2.60;2.05;;;15.00;62.30;;;;;;5097503;28;20451;-66
2022/04/07 05:16:33;;;;;;;6.07;1.90;;;15.00;62.30;;;;;;5118821;27;20026;-65
2022/04/07 05:18:59;;;;;;;2.35;1.75;;;15.00;62.30;;;;;;5117755;27;20027;-65
2022/04/07 05:21:25;;;;;;;5.40;2.38;;;15.00;62.10;;;;;;5135906;27;20054;-65
2022/04/07 05:23:51;;;;;;;4.22;2.10;;;15.00;62.10;;;;;;5117743;27;20023;-64
2022/04/07 05:26:17;;;;;;;5.55;2.00;;;15.00;62.00;;;;;;5117200;27;20060;-66
2022/04/07 05:28:43;;;;;;;2.83;1.90;;;15.00;62.10;;;;;;5136123;27;20034;-66
2022/04/07 05:31:10;;;;;;;2.67;2.08;;;15.10;62.10;;;;;;5135935;27;20504;-65
2022/04/07 05:33:36;;;;;;;4.15;2.85;;;15.10;62.20;;;;;;5116875;27;20436;-65
2022/04/07 05:36:02;;;;;;;3.05;1.98;;;15.10;62.10;;;;;;5117559;27;20055;-65
2022/04/07 05:38:27;;;;;;;2.28;1.70;;;15.20;62.10;;;;;;5136013;27;20034;-65
2022/04/07 05:40:53;;;;;;;3.40;2.10;;;15.20;62.10;;;;;;5116977;27;20051;-65
2022/04/07 05:43:19;;;;;;;11.15;2.20;;;15.30;62.30;;;;;;5135801;27;20024;-65
2022/04/07 05:45:45;;;;;;;5.53;2.25;;;15.30;62.20;;;;;;5117401;27;20042;-65
2022/04/07 05:48:14;;;;;;;4.07;2.17;;;15.40;62.10;;;;;;5135193;27;20019;-65
2022/04/07 05:50:40;;;;;;;2.50;1.90;;;15.40;62.10;;;;;;5117151;27;20455;-67
2022/04/07 05:53:07;;;;;;;4.13;2.45;;;15.50;62.00;;;;;;5135856;27;20023;-65
2022/04/07 05:55:33;;;;;;;3.38;1.98;;;15.60;61.90;;;;;;5135197;27;20446;-66
2022/04/07 05:58:07;;;;;;;4.65;2.08;;;15.60;61.70;;;;;;5117042;27;20023;-65
2022/04/07 06:00:33;;;;;;;2.55;2.17;;;15.70;61.60;;;;;;5134851;27;20023;-66
2022/04/07 06:02:59;;;;;;;4.20;2.47;;;15.70;61.40;;;;;;5131372;27;20051;-66
2022/04/07 06:05:26;;;;;;;6.60;2.35;;;15.80;61.30;;;;;;5129655;27;20114;-65
2022/04/07 06:08:00;;;;;;;8.00;2.78;;;15.80;61.00;;;;;;5118973;27;20028;-65
2022/04/07 06:10:26;;;;;;;;;;;15.90;60.70;;;;;;5125292;27;20539;-65
2022/04/07 06:12:52;;;;;;;6.13;2.67;;;15.90;60.50;;;;;;5116709;27;19911;-65
2022/04/07 06:15:17;;;;;;;6.38;2.92;;;16.00;60.20;;;;;;5114553;27;20062;-66
2022/04/07 06:17:44;;;;;;;5.88;2.70;;;16.00;60.20;;;;;;5130217;27;20080;-66
2022/04/07 06:20:11;;;;;;;5.75;2.60;;;16.00;60.20;;;;;;5135006;27;20350;-65
2022/04/07 06:22:38;;;;;;;3.00;2.10;;;16.10;60.30;;;;;;5132261;27;20107;-66
2022/04/07 06:25:05;;;;;;;4.03;2.03;;;16.10;60.30;;;;;;5113236;28;20119;-66
2022/04/07 06:27:34;;;;;;;3.05;2.20;;;16.20;60.00;;;;;;5133284;27;20414;-66
2022/04/07 06:30:00;;;;;;;2.65;1.95;;;16.20;59.80;;;;;;5113044;28;20036;-65
2022/04/07 06:32:26;;;;;;;5.55;2.08;;;16.20;59.70;;;;;;5114295;27;20451;-65
2022/04/07 06:34:52;;;;;;;2.25;1.52;;;16.30;59.80;;;;;;5115545;27;20023;-65
2022/04/07 06:37:18;;;;;;;3.85;1.88;;;16.30;59.80;;;;;;5134873;27;20031;-66
2022/04/07 06:39:43;;;;;;;5.13;2.15;;;16.40;59.90;;;;;;5116076;27;20055;-65
2022/04/07 06:42:09;;;;;;;4.32;1.75;;;16.50;59.80;;;;;;5134619;27;20463;-65
2022/04/07 06:44:35;;;;;;;3.70;1.83;;;16.50;59.60;;;;;;5116026;27;20076;-66
2022/04/07 06:47:01;;;;;;;3.00;1.73;;;16.60;59.50;;;;;;5133573;27;20042;-65
2022/04/07 06:49:26;;;;;;;5.45;2.33;;;16.70;59.50;;;;;;5128134;27;20024;-66
2022/04/07 06:51:52;;;;;;;3.67;2.03;;;16.70;59.30;;;;;;5110223;27;20148;-65
2022/04/07 06:54:18;;;;;;;3.10;1.95;;;16.80;59.30;;;;;;5131612;27;20450;-66
2022/04/07 06:56:44;;;;;;;2.75;1.60;;;16.90;58.90;;;;;;5128832;27;20083;-66
2022/04/07 06:59:09;;;;;;;3.15;1.60;;;17.00;58.80;;;;;;5131770;27;20027;-67
2022/04/07 07:01:35;;;;;;;3.55;1.60;;;17.10;57.70;;;;;;5131074;27;20037;-67
2022/04/07 07:04:01;;;;;;;2.05;1.20;;;17.20;57.50;;;;;;5110712;27;20030;-66
2022/04/07 07:06:26;;;;;;;1.50;0.98;;;17.20;56.30;;;;;;5124513;27;20168;-67
2022/04/07 07:08:52;;;;;;;7.13;1.13;;;17.30;54.80;;;;;;5114546;27;20031;-66
2022/04/07 07:11:18;;;;;;;0.98;0.90;;;17.30;54.00;;;;;;5130129;27;20097;-66
2022/04/07 07:13:44;;;;;;;1.65;1.17;;;17.30;54.30;;;;;;5112089;28;20093;-66
2022/04/07 07:16:09;;;;;;;0.98;0.70;;;17.30;54.20;;;;;;5127348;27;20031;-65
2022/04/07 07:18:38;;;;;;;4.53;0.90;;;17.30;54.50;;;;;;5133451;27;20034;-67
2022/04/07 07:21:04;;;;;;;1.55;0.80;;;17.30;54.20;;;;;;5115841;28;20367;-67
2022/04/07 07:23:32;;;;;;;4.75;0.70;;;17.40;53.10;;;;;;5132683;28;20023;-66
2022/04/07 07:25:58;;;;;;;1.45;0.80;;;17.40;52.70;;;;;;5111899;28;20019;-66
2022/04/07 07:28:24;;;;;;;1.35;0.70;;;17.50;51.30;;;;;;5133862;28;20366;-66
2022/04/07 07:30:50;;;;;;;4.20;0.55;;;17.50;51.60;;;;;;5114838;28;20425;-68
2022/04/07 07:33:15;;;;;;;1.77;0.40;;;17.60;50.60;;;;;;5132918;28;20421;-68
2022/04/07 07:35:45;;;;;;;1.58;0.68;;;17.70;49.40;;;;;;5134288;28;20023;-64
2022/04/07 07:38:12;;;;;;;1.35;0.63;;;17.80;48.90;;;;;;5115534;28;20031;-67
2022/04/07 07:40:38;;;;;;;1.40;0.60;;;17.80;47.50;;;;;;5133852;28;20082;-64
2022/04/07 07:43:04;;;;;;;0.80;0.50;;;17.80;48.10;;;;;;5133696;28;20069;-65
2022/04/07 07:45:34;;;;;;;0.98;0.52;;;17.90;48.40;;;;;;5115547;28;20027;-65
2022/04/07 07:48:00;;;;;;;1.55;0.63;;;17.90;47.70;;;;;;5134055;28;20023;-64
2022/04/07 07:50:26;;;;;;;1.63;0.65;;;17.90;47.60;;;;;;5134203;28;20050;-64
2022/04/07 07:52:52;;;;;;;2.42;0.38;;;17.90;46.90;;;;;;5115497;28;20023;-66
2022/04/07 07:55:18;;;;;;;1.30;0.52;;;17.80;47.30;;;;;;5133927;28;20151;-66
2022/04/07 07:57:44;;;;;;;0.30;0.22;;;17.80;47.70;;;;;;5115421;28;20024;-65
2022/04/07 08:00:14;;;;;;;1.67;0.60;;;17.80;47.80;;;;;;5115607;28;20027;-65
2022/04/07 08:02:40;;;;;;;0.50;0.45;;;17.70;47.40;;;;;;5133768;28;20015;-67
2022/04/07 08:05:07;;;;;;;0.60;0.40;;;17.70;47.20;;;;;;5133468;28;20028;-67
2022/04/07 08:07:33;;;;;;;3.70;0.50;;;17.60;46.90;;;;;;5115458;28;20023;-66
2022/04/07 08:10:00;;;;;;;1.30;0.60;;;17.50;47.60;;;;;;5115353;28;20037;-65
2022/04/07 08:12:26;;;;;;;1.25;0.60;;;17.40;47.30;;;;;;5133695;28;20080;-66
2022/04/07 08:14:53;;;;;;;0.50;0.50;;;17.30;46.70;;;;;;5115149;28;20023;-67
2022/04/07 08:17:20;;;;;;;1.15;0.70;;;17.30;47.30;;;;;;5115292;28;20023;-66
2022/04/07 08:19:46;;;;;;;3.03;0.50;;;17.30;47.10;;;;;;5133316;28;20063;-66
2022/04/07 08:22:11;;;;;;;0.50;0.50;;;17.30;47.60;;;;;;5131504;28;20054;-66
2022/04/07 08:24:37;;;;;;;2.97;0.60;;;17.40;47.80;;;;;;5114655;28;20027;-66
2022/04/07 08:27:05;;;;;;;0.77;0.63;;;17.50;47.60;;;;;;5115115;28;20032;-66
2022/04/07 08:29:31;;;;;;;0.65;0.60;;;17.60;47.50;;;;;;5115094;28;20031;-67
2022/04/07 08:31:57;;;;;;;1.10;0.57;;;17.80;47.50;;;;;;5115193;28;20027;-66
2022/04/07 08:34:25;;;;;;;0.55;0.45;;;17.90;46.90;;;;;;5132865;28;20027;-66
2022/04/07 08:36:51;;;;;;;1.48;0.57;;;18.20;47.20;;;;;;5115079;28;20035;-66
2022/04/07 08:39:18;;;;;;;0.85;0.63;;;18.30;47.00;;;;;;5117662;27;20082;-67
2022/04/07 08:41:47;;;;;;;1.25;0.40;;;18.50;45.70;;;;;;5118435;27;20032;-66
2022/04/07 08:44:16;;;;;;;1.45;0.60;;;18.70;45.40;;;;;;5118671;27;20476;-66
2022/04/07 08:46:48;;;;;;;0.60;0.57;;;18.80;44.90;;;;;;5136053;27;20474;-66
2022/04/07 08:49:17;;;;;;;1.85;0.47;;;19.00;44.70;;;;;;5118379;27;20363;-66
2022/04/07 08:51:45;;;;;;;1.52;0.50;;;19.10;44.10;;;;;;5136072;27;20388;-66
2022/04/07 08:54:12;;;;;;;1.20;0.47;;;19.20;43.40;;;;;;5115264;27;20027;-65
2022/04/07 08:56:39;;;;;;;0.98;0.30;;;19.30;43.30;;;;;;5118333;27;20050;-65
2022/04/07 08:59:05;;;;;;;1.20;0.40;;;19.40;42.00;;;;;;5117605;27;20023;-65
2022/04/07 09:01:31;;;;;;;0.38;0.30;;;19.40;41.40;;;;;;5136587;27;20084;-65
2022/04/07 09:03:57;;;;;;;0.40;0.30;;;19.40;40.70;;;;;;5135675;27;20110;-66
2022/04/07 09:06:23;;;;;;;0.90;0.40;;;19.40;40.90;;;;;;5135685;27;20032;-66
2022/04/07 09:08:49;;;;;;;3.13;0.50;;;19.40;41.30;;;;;;5117937;27;20058;-66
2022/04/07 09:11:17;;;;;;;1.20;0.38;;;19.50;40.30;;;;;;5135639;27;20490;-66
2022/04/07 09:13:47;;;;;;;0.15;0.10;;;19.50;40.30;;;;;;5136212;27;20529;-66
2022/04/07 09:16:15;;;;;;;1.23;0.77;;;19.50;40.00;;;;;;5136107;27;20030;-65
2022/04/07 09:18:43;;;;;;;1.08;0.40;;;19.60;39.00;;;;;;5118047;27;20023;-66
2022/04/07 09:21:23;;;;;;;1.13;0.40;;;19.60;39.40;;;;;;5118004;27;20026;-66
2022/04/07 09:23:49;;;;;;;0.85;0.38;;;19.60;39.00;;;;;;5136523;27;20106;-66
2022/04/07 09:26:16;;;;;;;0.73;0.47;;;19.60;38.90;;;;;;5117985;27;20114;-66
2022/04/07 09:28:42;;;;;;;0.73;0.30;;;19.60;38.90;;;;;;5117588;27;20027;-66
2022/04/07 09:31:13;;;;;;;2.42;0.55;;;19.60;38.90;;;;;;5136297;27;20110;-66
2022/04/07 09:33:39;;;;;;;3.25;0.55;;;19.60;38.80;;;;;;5114049;27;20054;-66
2022/04/07 09:36:19;;;;;;;2.05;0.50;;;19.60;38.70;;;;;;5115032;27;20047;-66
2022/04/07 09:38:52;;;;;;;0.20;0.20;;;19.60;38.50;;;;;;5113838;27;20394;-66
2022/04/07 09:41:19;;;;;;;0.73;0.43;;;19.70;38.50;;;;;;5132826;27;20031;-65
2022/04/07 09:43:46;;;;;;;2.58;1.02;;;19.80;38.20;;;;;;5132921;27;20341;-66
2022/04/07 09:46:13;;;;;;;1.00;0.50;;;19.80;37.90;;;;;;5113667;27;20023;-66
2022/04/07 09:48:40;;;;;;;0.43;0.30;;;19.80;38.30;;;;;;5113444;27;20019;-65
2022/04/07 09:51:07;;;;;;;0.20;0.20;;;19.80;37.70;;;;;;5115134;27;20125;-66
2022/04/07 09:53:40;;;;;;;0.60;0.20;;;19.90;37.30;;;;;;5133883;27;20031;-66
2022/04/07 09:56:07;;;;;;;0.43;0.40;;;20.00;36.90;;;;;;5115965;27;20023;-65
2022/04/07 09:58:34;;;;;;;0.50;0.25;;;20.10;37.60;;;;;;5132625;27;20027;-66
2022/04/07 10:01:04;;;;;;;0.95;0.30;;;20.40;38.00;;;;;;5135432;27;20027;-66
2022/04/07 10:03:31;;;;;;;3.17;0.43;;;20.60;37.60;;;;;;5111653;28;20028;-66
2022/04/07 10:06:00;;;;;;;1.00;0.50;;;20.80;35.20;;;;;;5117269;27;20023;-67
2022/04/07 10:08:27;;;;;;;1.35;0.50;;;20.80;34.90;;;;;;5135440;27;20101;-66
2022/04/07 10:10:53;;;;;;;4.60;0.73;;;20.90;35.80;;;;;;5117010;27;20031;-66
2022/04/07 10:13:20;;;;;;;2.25;0.45;;;20.90;36.60;;;;;;5117013;27;20050;-66
2022/04/07 10:15:49;;;;;;;2.75;0.50;;;20.90;36.10;;;;;;5135348;27;20034;-66
2022/04/07 10:18:24;;;;;;;2.08;0.47;;;21.00;35.50;;;;;;5116820;27;20479;-67
2022/04/07 10:20:54;;;;;;;0.85;0.38;;;21.10;35.60;;;;;;5116754;27;20378;-65
2022/04/07 10:23:56;;;;;;;1.00;0.38;;;21.20;35.40;;;;;;5135149;27;20072;-66
2022/04/07 10:26:24;;;;;;;1.42;0.47;;;21.30;35.50;;;;;;5116031;27;20019;-65
2022/04/07 10:28:56;;;;;;;6.72;0.60;;;21.50;34.50;;;;;;5116512;27;20030;-65
2022/04/07 10:31:22;;;;;;;0.38;0.17;;;21.50;33.70;;;;;;5116710;27;20091;-65
2022/04/07 10:33:48;;;;;;;1.30;0.40;;;21.50;33.50;;;;;;5134285;27;20031;-65
2022/04/07 10:36:20;;;;;;;11.80;0.47;;;21.60;34.50;;;;;;5115821;27;20027;-65
2022/04/07 10:38:48;;;;;;;1.73;0.50;;;21.60;34.00;;;;;;5116227;27;20027;-65
2022/04/07 10:41:38;;;;;;;0.43;0.30;;;21.60;34.40;;;;;;5134731;27;20478;-65
2022/04/07 10:44:11;;;;;;;1.88;0.50;;;21.60;34.10;;;;;;5116146;27;20034;-65
2022/04/07 10:46:37;;;;;;;0.30;0.20;;;21.60;32.90;;;;;;5116514;27;20355;-65
2022/04/07 10:49:07;;;;;;;0.73;0.32;;;21.40;32.30;;;;;;5134778;27;20038;-65
2022/04/07 10:51:45;;;;;;;0.50;0.40;;;21.40;33.10;;;;;;5114568;27;20438;-65
2022/04/07 10:54:14;;;;;;;0.90;0.38;;;21.30;32.20;;;;;;5114513;27;20085;-65
2022/04/07 10:56:46;;;;;;;0.50;0.30;;;21.30;32.60;;;;;;5116181;27;20054;-65
2022/04/07 10:59:21;;;;;;;0.80;0.30;;;21.30;33.00;;;;;;5116325;27;20027;-65
2022/04/07 11:01:52;;;;;;;0.90;0.45;;;21.30;32.30;;;;;;5115257;27;20054;-65
2022/04/07 11:04:28;;;;;;;1.58;0.30;;;21.30;30.60;;;;;;5133797;27;20137;-65
2022/04/07 11:07:13;;;;;;;0.65;0.20;;;21.40;31.30;;;;;;5134342;27;20051;-66
2022/04/07 11:09:55;;;;;;;0.75;0.38;;;21.30;31.10;;;;;;5134493;27;20455;-65
2022/04/07 11:12:28;;;;;;;0.60;0.40;;;21.20;31.90;;;;;;5134492;27;20020;-66
2022/04/07 11:15:17;;;;;;;5.43;0.95;;;21.20;32.00;;;;;;5134439;27;20035;-65
2022/04/07 11:17:43;;;;;;;1.23;0.40;;;21.20;32.40;;;;;;5134500;27;20029;-65
2022/04/07 11:20:20;;;;;;;3.40;0.60;;;21.20;32.10;;;;;;5113970;28;20391;-66
2022/04/07 11:22:50;;;;;;;1.15;0.30;;;21.20;31.80;;;;;;5113706;28;20024;-65
2022/04/07 11:25:29;;;;;;;2.05;0.68;;;21.10;30.00;;;;;;5095418;28;20486;-65
2022/04/07 11:28:10;;;;;;;0.47;0.30;;;21.00;30.90;;;;;;5113775;28;20020;-65
2022/04/07 11:30:50;;;;;;;3.40;0.60;;;21.00;31.50;;;;;;5095297;28;20391;-65
2022/04/07 11:33:27;;;;;;;0.93;0.47;;;21.00;31.90;;;;;;5118500;28;20051;-65
2022/04/07 11:35:59;;;;;;;1.25;0.57;;;21.10;32.00;;;;;;5134196;28;20034;-65
2022/04/07 11:38:48;;;;;;;1.58;0.38;;;21.10;31.30;;;;;;5134086;28;20080;-65
2022/04/07 11:41:16;;;;;;;1.02;0.32;;;21.10;30.90;;;;;;5134114;28;20043;-65
2022/04/07 11:43:44;;;;;;;2.70;0.47;;;21.20;29.90;;;;;;5134146;28;20031;-66
2022/04/07 11:46:13;;;;;;;1.60;0.50;;;21.20;29.90;;;;;;5133992;28;20031;-66
2022/04/07 11:48:39;;;;;;;0.75;0.40;;;21.20;29.70;;;;;;5133686;28;20084;-66
2022/04/07 11:51:12;;;;;;;6.05;0.35;;;21.20;29.90;;;;;;5133978;28;20038;-65
2022/04/07 11:53:46;;;;;;;0.38;0.28;;;21.30;29.70;;;;;;5115636;28;20054;-66
2022/04/07 11:56:17;;;;;;;3.78;0.30;;;21.40;29.60;;;;;;5115635;28;20035;-66
2022/04/07 11:58:44;;;;;;;0.82;0.30;;;21.40;31.00;;;;;;5125548;28;20027;-65
2022/04/07 12:01:13;;;;;;;0.63;0.40;;;21.50;31.60;;;;;;5115479;28;20027;-66
2022/04/07 12:03:39;;;;;;;0.90;0.40;;;21.50;30.20;;;;;;5115039;28;20015;-66
2022/04/07 12:06:05;;;;;;;0.88;0.20;;;21.60;29.90;;;;;;5133676;28;20039;-66
2022/04/07 12:08:31;;;;;;;1.33;0.50;;;21.80;29.70;;;;;;5133525;28;20383;-65
2022/04/07 12:10:58;;;;;;;2.00;0.57;;;21.90;28.70;;;;;;5115295;28;20381;-67
2022/04/07 12:13:24;;;;;;;1.33;0.22;;;22.00;28.80;;;;;;5137381;27;20031;-66
2022/04/07 12:15:50;;;;;;;2.72;0.60;;;22.20;29.10;;;;;;5137743;27;20019;-66
2022/04/07 12:18:26;;;;;;;2.33;0.40;;;22.30;28.10;;;;;;5119308;27;20377;-66
2022/04/07 12:20:59;;;;;;;3.53;0.65;;;22.40;28.30;;;;;;5112094;27;20066;-66
2022/04/07 12:23:27;;;;;;;1.85;0.40;;;22.50;28.00;;;;;;5137691;27;20023;-66
2022/04/07 12:26:01;;;;;;;1.98;0.40;;;22.60;27.70;;;;;;5119011;27;20179;-66
2022/04/07 12:28:38;;;;;;;0.45;0.22;;;22.50;27.70;;;;;;5137481;27;20135;-67
2022/04/07 12:31:24;;;;;;;1.50;0.55;;;22.60;28.30;;;;;;5137151;27;20454;-66
2022/04/07 12:33:50;;;;;;;1.75;0.40;;;22.60;28.30;;;;;;5129007;27;20142;-66
2022/04/07 12:36:36;;;;;;;0.60;0.35;;;22.60;27.60;;;;;;5137147;27;20443;-66
2022/04/07 12:39:08;;;;;;;8.35;1.02;;;22.60;27.90;;;;;;5134268;27;20133;-66
2022/04/07 12:41:54;;;;;;;0.65;0.40;;;22.60;27.50;;;;;;5098404;28;20034;-66
2022/04/07 12:44:35;;;;;;;0.65;0.40;;;22.60;27.40;;;;;;5116314;28;20429;-66
2022/04/07 12:47:14;;;;;;;0.75;0.30;;;22.70;27.60;;;;;;5098165;28;20032;-66
2022/04/07 12:49:52;;;;;;;0.52;0.30;;;22.90;27.20;;;;;;5097630;28;20471;-66
2022/04/07 12:52:19;;;;;;;1.85;0.38;;;23.00;27.20;;;;;;5098227;28;20459;-66